<?xml version="1.0" encoding="UTF-8" standalone="no" ?>
<gpx xmlns="http://www.topografix.com/GPX/1/1" xmlns:xsi="http://www.w3.org/2001/XMLSchema-instance" xsi:schemaLocation="http://www.topografix.com/GPX/1/1 http://www.topografix.com/GPX/1/1/gpx.xsd" version="1.1" creator="VisuGPX - https://www.visugpx.com">
  <metadata>
    <name>La Plate Taille</name>
    <desc><![CDATA[[b]Promenade près du lac de la Plate Taille[/b]
Promenade aux alentours du lac de la [i]Plate Taille[/i]]]></desc>
  </metadata>
  <trk>
    <name><![CDATA[Eau d'Heure]]></name>
    <trkseg>
      <trkpt lat="50.19211" lon="4.38143">
        <ele>263.54</ele>
        <time>2024-07-10T13:04:40Z</time>
      </trkpt>
      <trkpt lat="50.19211" lon="4.38142">
        <ele>263.54</ele>
        <time>2024-07-10T13:04:41Z</time>
      </trkpt>
      <trkpt lat="50.19205" lon="4.38138">
        <ele>264.98</ele>
        <time>2024-07-10T13:04:53Z</time>
      </trkpt>
      <trkpt lat="50.19199" lon="4.38133">
        <ele>264.98</ele>
        <time>2024-07-10T13:05:00Z</time>
      </trkpt>
      <trkpt lat="50.19197" lon="4.38128">
        <ele>263.54</ele>
        <time>2024-07-10T13:05:04Z</time>
      </trkpt>
      <trkpt lat="50.19186" lon="4.38111">
        <ele>263.54</ele>
        <time>2024-07-10T13:05:19Z</time>
      </trkpt>
      <trkpt lat="50.19175" lon="4.38096">
        <ele>263.54</ele>
        <time>2024-07-10T13:05:34Z</time>
      </trkpt>
      <trkpt lat="50.19164" lon="4.38081">
        <ele>264.5</ele>
        <time>2024-07-10T13:05:48Z</time>
      </trkpt>
      <trkpt lat="50.19159" lon="4.38072">
        <ele>263.54</ele>
        <time>2024-07-10T13:05:56Z</time>
      </trkpt>
      <trkpt lat="50.19156" lon="4.38067">
        <ele>264.5</ele>
        <time>2024-07-10T13:06:00Z</time>
      </trkpt>
      <trkpt lat="50.19152" lon="4.38057">
        <ele>264.5</ele>
        <time>2024-07-10T13:06:07Z</time>
      </trkpt>
      <trkpt lat="50.1915" lon="4.38052">
        <ele>263.54</ele>
        <time>2024-07-10T13:06:11Z</time>
      </trkpt>
      <trkpt lat="50.19149" lon="4.38043">
        <ele>266.9</ele>
        <time>2024-07-10T13:06:22Z</time>
      </trkpt>
      <trkpt lat="50.19147" lon="4.38044">
        <ele>263.54</ele>
        <time>2024-07-10T13:06:27Z</time>
      </trkpt>
      <trkpt lat="50.19147" lon="4.38049">
        <ele>263.54</ele>
        <time>2024-07-10T13:06:32Z</time>
      </trkpt>
      <trkpt lat="50.19148" lon="4.38045">
        <ele>263.54</ele>
        <time>2024-07-10T13:06:36Z</time>
      </trkpt>
      <trkpt lat="50.19143" lon="4.38034">
        <ele>263.54</ele>
        <time>2024-07-10T13:06:44Z</time>
      </trkpt>
      <trkpt lat="50.1914" lon="4.3803">
        <ele>263.54</ele>
        <time>2024-07-10T13:06:48Z</time>
      </trkpt>
      <trkpt lat="50.19135" lon="4.38027">
        <ele>262.58</ele>
        <time>2024-07-10T13:07:01Z</time>
      </trkpt>
      <trkpt lat="50.19132" lon="4.38024">
        <ele>261.14</ele>
        <time>2024-07-10T13:07:09Z</time>
      </trkpt>
      <trkpt lat="50.1913" lon="4.38011">
        <ele>261.14</ele>
        <time>2024-07-10T13:07:24Z</time>
      </trkpt>
      <trkpt lat="50.19128" lon="4.37989">
        <ele>260.65</ele>
        <time>2024-07-10T13:07:40Z</time>
      </trkpt>
      <trkpt lat="50.19128" lon="4.37986">
        <ele>260.65</ele>
        <time>2024-07-10T13:07:42Z</time>
      </trkpt>
      <trkpt lat="50.19127" lon="4.37959">
        <ele>260.65</ele>
        <time>2024-07-10T13:08:00Z</time>
      </trkpt>
      <trkpt lat="50.19127" lon="4.37951">
        <ele>260.65</ele>
        <time>2024-07-10T13:08:06Z</time>
      </trkpt>
      <trkpt lat="50.19126" lon="4.37926">
        <ele>260.65</ele>
        <time>2024-07-10T13:08:22Z</time>
      </trkpt>
      <trkpt lat="50.19125" lon="4.37918">
        <ele>260.65</ele>
        <time>2024-07-10T13:08:28Z</time>
      </trkpt>
      <trkpt lat="50.1912" lon="4.37892">
        <ele>260.65</ele>
        <time>2024-07-10T13:08:45Z</time>
      </trkpt>
      <trkpt lat="50.19113" lon="4.37872">
        <ele>260.65</ele>
        <time>2024-07-10T13:09:01Z</time>
      </trkpt>
      <trkpt lat="50.19106" lon="4.37846">
        <ele>260.17</ele>
        <time>2024-07-10T13:09:19Z</time>
      </trkpt>
      <trkpt lat="50.19103" lon="4.3783">
        <ele>260.17</ele>
        <time>2024-07-10T13:09:31Z</time>
      </trkpt>
      <trkpt lat="50.19102" lon="4.37826">
        <ele>260.17</ele>
        <time>2024-07-10T13:09:34Z</time>
      </trkpt>
      <trkpt lat="50.19097" lon="4.37805">
        <ele>261.62</ele>
        <time>2024-07-10T13:09:48Z</time>
      </trkpt>
      <trkpt lat="50.19094" lon="4.37794">
        <ele>261.14</ele>
        <time>2024-07-10T13:09:55Z</time>
      </trkpt>
      <trkpt lat="50.19088" lon="4.37766">
        <ele>261.14</ele>
        <time>2024-07-10T13:10:13Z</time>
      </trkpt>
      <trkpt lat="50.19084" lon="4.37744">
        <ele>262.1</ele>
        <time>2024-07-10T13:10:28Z</time>
      </trkpt>
      <trkpt lat="50.1908" lon="4.37723">
        <ele>263.54</ele>
        <time>2024-07-10T13:10:44Z</time>
      </trkpt>
      <trkpt lat="50.19085" lon="4.37722">
        <ele>264.02</ele>
        <time>2024-07-10T13:10:55Z</time>
      </trkpt>
      <trkpt lat="50.19084" lon="4.37724">
        <ele>264.5</ele>
        <time>2024-07-10T13:11:19Z</time>
      </trkpt>
      <trkpt lat="50.19083" lon="4.37722">
        <ele>263.06</ele>
        <time>2024-07-10T13:11:24Z</time>
      </trkpt>
      <trkpt lat="50.19075" lon="4.37715">
        <ele>263.06</ele>
        <time>2024-07-10T13:11:38Z</time>
      </trkpt>
      <trkpt lat="50.19062" lon="4.37702">
        <ele>262.1</ele>
        <time>2024-07-10T13:11:56Z</time>
      </trkpt>
      <trkpt lat="50.19059" lon="4.37699">
        <ele>262.1</ele>
        <time>2024-07-10T13:12:03Z</time>
      </trkpt>
      <trkpt lat="50.19049" lon="4.37688">
        <ele>261.14</ele>
        <time>2024-07-10T13:12:20Z</time>
      </trkpt>
      <trkpt lat="50.19039" lon="4.37682">
        <ele>260.65</ele>
        <time>2024-07-10T13:12:35Z</time>
      </trkpt>
      <trkpt lat="50.1903" lon="4.37679">
        <ele>261.14</ele>
        <time>2024-07-10T13:12:44Z</time>
      </trkpt>
      <trkpt lat="50.1901" lon="4.37672">
        <ele>260.65</ele>
        <time>2024-07-10T13:13:01Z</time>
      </trkpt>
      <trkpt lat="50.18999" lon="4.3765">
        <ele>260.65</ele>
        <time>2024-07-10T13:13:19Z</time>
      </trkpt>
      <trkpt lat="50.18991" lon="4.37627">
        <ele>261.62</ele>
        <time>2024-07-10T13:13:36Z</time>
      </trkpt>
      <trkpt lat="50.1898" lon="4.37619">
        <ele>261.62</ele>
        <time>2024-07-10T13:13:49Z</time>
      </trkpt>
      <trkpt lat="50.18961" lon="4.37617">
        <ele>261.62</ele>
        <time>2024-07-10T13:14:08Z</time>
      </trkpt>
      <trkpt lat="50.18955" lon="4.37619">
        <ele>261.62</ele>
        <time>2024-07-10T13:14:15Z</time>
      </trkpt>
      <trkpt lat="50.1894" lon="4.37636">
        <ele>261.62</ele>
        <time>2024-07-10T13:14:35Z</time>
      </trkpt>
      <trkpt lat="50.18939" lon="4.3764">
        <ele>262.58</ele>
        <time>2024-07-10T13:14:38Z</time>
      </trkpt>
      <trkpt lat="50.18928" lon="4.37672">
        <ele>262.1</ele>
        <time>2024-07-10T13:15:00Z</time>
      </trkpt>
      <trkpt lat="50.18921" lon="4.37682">
        <ele>260.65</ele>
        <time>2024-07-10T13:15:09Z</time>
      </trkpt>
      <trkpt lat="50.1891" lon="4.377">
        <ele>260.65</ele>
        <time>2024-07-10T13:15:26Z</time>
      </trkpt>
      <trkpt lat="50.189" lon="4.37711">
        <ele>260.65</ele>
        <time>2024-07-10T13:15:38Z</time>
      </trkpt>
      <trkpt lat="50.18884" lon="4.37717">
        <ele>260.17</ele>
        <time>2024-07-10T13:15:55Z</time>
      </trkpt>
      <trkpt lat="50.18866" lon="4.37716">
        <ele>260.17</ele>
        <time>2024-07-10T13:16:12Z</time>
      </trkpt>
      <trkpt lat="50.18847" lon="4.37717">
        <ele>259.69</ele>
        <time>2024-07-10T13:16:30Z</time>
      </trkpt>
      <trkpt lat="50.18836" lon="4.37717">
        <ele>259.69</ele>
        <time>2024-07-10T13:16:42Z</time>
      </trkpt>
      <trkpt lat="50.18814" lon="4.37715">
        <ele>259.21</ele>
        <time>2024-07-10T13:17:02Z</time>
      </trkpt>
      <trkpt lat="50.18806" lon="4.37713">
        <ele>260.65</ele>
        <time>2024-07-10T13:17:09Z</time>
      </trkpt>
      <trkpt lat="50.18792" lon="4.3769">
        <ele>261.14</ele>
        <time>2024-07-10T13:17:27Z</time>
      </trkpt>
      <trkpt lat="50.18787" lon="4.37668">
        <ele>262.1</ele>
        <time>2024-07-10T13:17:43Z</time>
      </trkpt>
      <trkpt lat="50.18783" lon="4.37647">
        <ele>262.1</ele>
        <time>2024-07-10T13:18:02Z</time>
      </trkpt>
      <trkpt lat="50.18781" lon="4.37643">
        <ele>262.1</ele>
        <time>2024-07-10T13:18:10Z</time>
      </trkpt>
      <trkpt lat="50.18767" lon="4.37618">
        <ele>262.1</ele>
        <time>2024-07-10T13:18:32Z</time>
      </trkpt>
      <trkpt lat="50.18758" lon="4.37602">
        <ele>262.1</ele>
        <time>2024-07-10T13:18:47Z</time>
      </trkpt>
      <trkpt lat="50.18748" lon="4.37577">
        <ele>262.1</ele>
        <time>2024-07-10T13:19:07Z</time>
      </trkpt>
      <trkpt lat="50.18742" lon="4.37553">
        <ele>257.77</ele>
        <time>2024-07-10T13:19:23Z</time>
      </trkpt>
      <trkpt lat="50.18742" lon="4.37551">
        <ele>261.14</ele>
        <time>2024-07-10T13:19:24Z</time>
      </trkpt>
      <trkpt lat="50.18735" lon="4.37528">
        <ele>260.65</ele>
        <time>2024-07-10T13:19:41Z</time>
      </trkpt>
      <trkpt lat="50.18732" lon="4.375">
        <ele>260.65</ele>
        <time>2024-07-10T13:19:58Z</time>
      </trkpt>
      <trkpt lat="50.18732" lon="4.37476">
        <ele>260.17</ele>
        <time>2024-07-10T13:20:13Z</time>
      </trkpt>
      <trkpt lat="50.18729" lon="4.37448">
        <ele>260.17</ele>
        <time>2024-07-10T13:20:30Z</time>
      </trkpt>
      <trkpt lat="50.18724" lon="4.37422">
        <ele>259.21</ele>
        <time>2024-07-10T13:20:47Z</time>
      </trkpt>
      <trkpt lat="50.18723" lon="4.374">
        <ele>259.21</ele>
        <time>2024-07-10T13:21:01Z</time>
      </trkpt>
      <trkpt lat="50.18722" lon="4.37385">
        <ele>260.17</ele>
        <time>2024-07-10T13:21:20Z</time>
      </trkpt>
      <trkpt lat="50.18729" lon="4.37364">
        <ele>260.65</ele>
        <time>2024-07-10T13:21:36Z</time>
      </trkpt>
      <trkpt lat="50.18741" lon="4.37345">
        <ele>261.14</ele>
        <time>2024-07-10T13:21:54Z</time>
      </trkpt>
      <trkpt lat="50.18755" lon="4.37339">
        <ele>260.65</ele>
        <time>2024-07-10T13:22:11Z</time>
      </trkpt>
      <trkpt lat="50.18773" lon="4.37325">
        <ele>260.65</ele>
        <time>2024-07-10T13:22:28Z</time>
      </trkpt>
      <trkpt lat="50.18786" lon="4.37311">
        <ele>260.65</ele>
        <time>2024-07-10T13:22:45Z</time>
      </trkpt>
      <trkpt lat="50.18798" lon="4.37288">
        <ele>260.17</ele>
        <time>2024-07-10T13:23:04Z</time>
      </trkpt>
      <trkpt lat="50.18802" lon="4.37252">
        <ele>258.73</ele>
        <time>2024-07-10T13:23:24Z</time>
      </trkpt>
      <trkpt lat="50.188" lon="4.37224">
        <ele>259.69</ele>
        <time>2024-07-10T13:23:42Z</time>
      </trkpt>
      <trkpt lat="50.188" lon="4.37222">
        <ele>259.69</ele>
        <time>2024-07-10T13:23:43Z</time>
      </trkpt>
      <trkpt lat="50.18791" lon="4.37192">
        <ele>261.62</ele>
        <time>2024-07-10T13:24:07Z</time>
      </trkpt>
      <trkpt lat="50.1878" lon="4.37168">
        <ele>261.14</ele>
        <time>2024-07-10T13:24:25Z</time>
      </trkpt>
      <trkpt lat="50.18769" lon="4.37143">
        <ele>261.14</ele>
        <time>2024-07-10T13:24:42Z</time>
      </trkpt>
      <trkpt lat="50.18759" lon="4.37121">
        <ele>261.14</ele>
        <time>2024-07-10T13:24:58Z</time>
      </trkpt>
      <trkpt lat="50.18757" lon="4.37117">
        <ele>259.69</ele>
        <time>2024-07-10T13:25:01Z</time>
      </trkpt>
      <trkpt lat="50.18743" lon="4.37095">
        <ele>258.73</ele>
        <time>2024-07-10T13:25:20Z</time>
      </trkpt>
      <trkpt lat="50.18736" lon="4.37072">
        <ele>257.77</ele>
        <time>2024-07-10T13:25:39Z</time>
      </trkpt>
      <trkpt lat="50.18725" lon="4.37038">
        <ele>257.29</ele>
        <time>2024-07-10T13:25:56Z</time>
      </trkpt>
      <trkpt lat="50.18725" lon="4.37023">
        <ele>256.33</ele>
        <time>2024-07-10T13:26:09Z</time>
      </trkpt>
      <trkpt lat="50.18725" lon="4.37019">
        <ele>257.77</ele>
        <time>2024-07-10T13:26:12Z</time>
      </trkpt>
      <trkpt lat="50.18729" lon="4.36998">
        <ele>257.29</ele>
        <time>2024-07-10T13:26:27Z</time>
      </trkpt>
      <trkpt lat="50.18734" lon="4.36975">
        <ele>256.33</ele>
        <time>2024-07-10T13:26:44Z</time>
      </trkpt>
      <trkpt lat="50.18737" lon="4.36947">
        <ele>256.33</ele>
        <time>2024-07-10T13:27:02Z</time>
      </trkpt>
      <trkpt lat="50.18734" lon="4.36914">
        <ele>256.33</ele>
        <time>2024-07-10T13:27:18Z</time>
      </trkpt>
      <trkpt lat="50.18732" lon="4.36885">
        <ele>255.85</ele>
        <time>2024-07-10T13:27:34Z</time>
      </trkpt>
      <trkpt lat="50.18733" lon="4.36863">
        <ele>255.85</ele>
        <time>2024-07-10T13:27:48Z</time>
      </trkpt>
      <trkpt lat="50.18739" lon="4.36844">
        <ele>255.85</ele>
        <time>2024-07-10T13:28:01Z</time>
      </trkpt>
      <trkpt lat="50.18746" lon="4.36821">
        <ele>257.29</ele>
        <time>2024-07-10T13:28:19Z</time>
      </trkpt>
      <trkpt lat="50.18745" lon="4.36812">
        <ele>257.77</ele>
        <time>2024-07-10T13:28:36Z</time>
      </trkpt>
      <trkpt lat="50.18738" lon="4.36815">
        <ele>257.29</ele>
        <time>2024-07-10T13:28:59Z</time>
      </trkpt>
      <trkpt lat="50.18737" lon="4.36817">
        <ele>256.33</ele>
        <time>2024-07-10T13:29:03Z</time>
      </trkpt>
      <trkpt lat="50.18733" lon="4.36813">
        <ele>254.89</ele>
        <time>2024-07-10T13:29:24Z</time>
      </trkpt>
      <trkpt lat="50.18732" lon="4.36801">
        <ele>254.89</ele>
        <time>2024-07-10T13:29:44Z</time>
      </trkpt>
      <trkpt lat="50.18739" lon="4.36799">
        <ele>255.85</ele>
        <time>2024-07-10T13:29:57Z</time>
      </trkpt>
      <trkpt lat="50.18744" lon="4.36788">
        <ele>257.29</ele>
        <time>2024-07-10T13:30:15Z</time>
      </trkpt>
      <trkpt lat="50.18743" lon="4.36767">
        <ele>256.33</ele>
        <time>2024-07-10T13:30:30Z</time>
      </trkpt>
      <trkpt lat="50.18739" lon="4.36748">
        <ele>255.85</ele>
        <time>2024-07-10T13:30:48Z</time>
      </trkpt>
      <trkpt lat="50.18727" lon="4.36732">
        <ele>254.41</ele>
        <time>2024-07-10T13:31:08Z</time>
      </trkpt>
      <trkpt lat="50.18724" lon="4.36724">
        <ele>255.37</ele>
        <time>2024-07-10T13:31:31Z</time>
      </trkpt>
      <trkpt lat="50.18727" lon="4.36721">
        <ele>255.37</ele>
        <time>2024-07-10T13:31:35Z</time>
      </trkpt>
      <trkpt lat="50.18732" lon="4.36717">
        <ele>251.52</ele>
        <time>2024-07-10T13:31:42Z</time>
      </trkpt>
      <trkpt lat="50.18732" lon="4.36716">
        <ele>258.25</ele>
        <time>2024-07-10T13:31:43Z</time>
      </trkpt>
      <trkpt lat="50.18734" lon="4.36701">
        <ele>251.04</ele>
        <time>2024-07-10T13:31:53Z</time>
      </trkpt>
      <trkpt lat="50.18734" lon="4.36699">
        <ele>258.25</ele>
        <time>2024-07-10T13:31:54Z</time>
      </trkpt>
      <trkpt lat="50.1874" lon="4.36667">
        <ele>255.37</ele>
        <time>2024-07-10T13:32:14Z</time>
      </trkpt>
      <trkpt lat="50.18752" lon="4.36643">
        <ele>255.37</ele>
        <time>2024-07-10T13:32:32Z</time>
      </trkpt>
      <trkpt lat="50.18766" lon="4.36629">
        <ele>256.33</ele>
        <time>2024-07-10T13:32:48Z</time>
      </trkpt>
      <trkpt lat="50.1877" lon="4.36626">
        <ele>256.33</ele>
        <time>2024-07-10T13:32:53Z</time>
      </trkpt>
      <trkpt lat="50.18787" lon="4.36617">
        <ele>255.37</ele>
        <time>2024-07-10T13:33:10Z</time>
      </trkpt>
      <trkpt lat="50.18803" lon="4.36611">
        <ele>255.37</ele>
        <time>2024-07-10T13:33:28Z</time>
      </trkpt>
      <trkpt lat="50.18824" lon="4.36611">
        <ele>256.81</ele>
        <time>2024-07-10T13:33:49Z</time>
      </trkpt>
      <trkpt lat="50.18842" lon="4.3661">
        <ele>256.81</ele>
        <time>2024-07-10T13:34:07Z</time>
      </trkpt>
      <trkpt lat="50.18868" lon="4.36605">
        <ele>255.37</ele>
        <time>2024-07-10T13:34:27Z</time>
      </trkpt>
      <trkpt lat="50.18881" lon="4.36606">
        <ele>254.89</ele>
        <time>2024-07-10T13:34:39Z</time>
      </trkpt>
      <trkpt lat="50.18898" lon="4.36599">
        <ele>254.41</ele>
        <time>2024-07-10T13:34:51Z</time>
      </trkpt>
      <trkpt lat="50.18916" lon="4.36571">
        <ele>252.96</ele>
        <time>2024-07-10T13:35:10Z</time>
      </trkpt>
      <trkpt lat="50.18923" lon="4.36542">
        <ele>252.48</ele>
        <time>2024-07-10T13:35:27Z</time>
      </trkpt>
      <trkpt lat="50.18919" lon="4.36514">
        <ele>254.41</ele>
        <time>2024-07-10T13:35:46Z</time>
      </trkpt>
      <trkpt lat="50.18916" lon="4.36499">
        <ele>254.41</ele>
        <time>2024-07-10T13:36:04Z</time>
      </trkpt>
      <trkpt lat="50.18899" lon="4.36473">
        <ele>255.37</ele>
        <time>2024-07-10T13:36:22Z</time>
      </trkpt>
      <trkpt lat="50.18886" lon="4.36455">
        <ele>254.89</ele>
        <time>2024-07-10T13:36:42Z</time>
      </trkpt>
      <trkpt lat="50.18884" lon="4.36454">
        <ele>253.93</ele>
        <time>2024-07-10T13:36:44Z</time>
      </trkpt>
      <trkpt lat="50.18868" lon="4.36439">
        <ele>253.93</ele>
        <time>2024-07-10T13:37:02Z</time>
      </trkpt>
      <trkpt lat="50.18852" lon="4.36425">
        <ele>252.96</ele>
        <time>2024-07-10T13:37:20Z</time>
      </trkpt>
      <trkpt lat="50.18837" lon="4.36414">
        <ele>252.48</ele>
        <time>2024-07-10T13:37:37Z</time>
      </trkpt>
      <trkpt lat="50.18828" lon="4.36399">
        <ele>251.52</ele>
        <time>2024-07-10T13:37:55Z</time>
      </trkpt>
      <trkpt lat="50.18823" lon="4.36387">
        <ele>252.48</ele>
        <time>2024-07-10T13:38:10Z</time>
      </trkpt>
      <trkpt lat="50.18822" lon="4.36367">
        <ele>252.48</ele>
        <time>2024-07-10T13:38:32Z</time>
      </trkpt>
      <trkpt lat="50.18825" lon="4.36355">
        <ele>252.96</ele>
        <time>2024-07-10T13:38:40Z</time>
      </trkpt>
      <trkpt lat="50.18837" lon="4.36329">
        <ele>252.96</ele>
        <time>2024-07-10T13:38:59Z</time>
      </trkpt>
      <trkpt lat="50.18848" lon="4.36314">
        <ele>252.96</ele>
        <time>2024-07-10T13:39:14Z</time>
      </trkpt>
      <trkpt lat="50.18849" lon="4.36313">
        <ele>252.96</ele>
        <time>2024-07-10T13:39:16Z</time>
      </trkpt>
      <trkpt lat="50.1886" lon="4.36292">
        <ele>253.44</ele>
        <time>2024-07-10T13:39:33Z</time>
      </trkpt>
      <trkpt lat="50.18862" lon="4.36285">
        <ele>253.44</ele>
        <time>2024-07-10T13:39:38Z</time>
      </trkpt>
      <trkpt lat="50.18863" lon="4.36279">
        <ele>252</ele>
        <time>2024-07-10T13:39:44Z</time>
      </trkpt>
      <trkpt lat="50.18861" lon="4.36252">
        <ele>252</ele>
        <time>2024-07-10T13:40:00Z</time>
      </trkpt>
      <trkpt lat="50.18859" lon="4.36226">
        <ele>252</ele>
        <time>2024-07-10T13:40:16Z</time>
      </trkpt>
      <trkpt lat="50.18859" lon="4.36215">
        <ele>253.93</ele>
        <time>2024-07-10T13:40:23Z</time>
      </trkpt>
      <trkpt lat="50.18864" lon="4.36188">
        <ele>254.89</ele>
        <time>2024-07-10T13:40:41Z</time>
      </trkpt>
      <trkpt lat="50.18872" lon="4.36164">
        <ele>255.37</ele>
        <time>2024-07-10T13:40:58Z</time>
      </trkpt>
      <trkpt lat="50.18885" lon="4.36144">
        <ele>256.33</ele>
        <time>2024-07-10T13:41:16Z</time>
      </trkpt>
      <trkpt lat="50.18891" lon="4.36135">
        <ele>256.81</ele>
        <time>2024-07-10T13:41:24Z</time>
      </trkpt>
      <trkpt lat="50.18902" lon="4.36115">
        <ele>257.77</ele>
        <time>2024-07-10T13:41:40Z</time>
      </trkpt>
      <trkpt lat="50.18908" lon="4.36097">
        <ele>257.29</ele>
        <time>2024-07-10T13:41:53Z</time>
      </trkpt>
      <trkpt lat="50.1891" lon="4.36091">
        <ele>257.77</ele>
        <time>2024-07-10T13:42:04Z</time>
      </trkpt>
      <trkpt lat="50.18915" lon="4.36063">
        <ele>258.25</ele>
        <time>2024-07-10T13:42:21Z</time>
      </trkpt>
      <trkpt lat="50.18919" lon="4.36049">
        <ele>258.25</ele>
        <time>2024-07-10T13:42:37Z</time>
      </trkpt>
      <trkpt lat="50.18919" lon="4.36045">
        <ele>258.25</ele>
        <time>2024-07-10T13:43:07Z</time>
      </trkpt>
      <trkpt lat="50.18918" lon="4.36042">
        <ele>258.25</ele>
        <time>2024-07-10T13:43:36Z</time>
      </trkpt>
      <trkpt lat="50.18922" lon="4.3603">
        <ele>258.73</ele>
        <time>2024-07-10T13:43:51Z</time>
      </trkpt>
      <trkpt lat="50.18924" lon="4.36024">
        <ele>258.73</ele>
        <time>2024-07-10T13:43:56Z</time>
      </trkpt>
      <trkpt lat="50.18929" lon="4.36008">
        <ele>258.25</ele>
        <time>2024-07-10T13:44:09Z</time>
      </trkpt>
      <trkpt lat="50.18938" lon="4.35983">
        <ele>258.73</ele>
        <time>2024-07-10T13:44:28Z</time>
      </trkpt>
      <trkpt lat="50.18945" lon="4.35963">
        <ele>256.33</ele>
        <time>2024-07-10T13:44:44Z</time>
      </trkpt>
      <trkpt lat="50.18947" lon="4.35936">
        <ele>255.85</ele>
        <time>2024-07-10T13:45:01Z</time>
      </trkpt>
      <trkpt lat="50.18944" lon="4.35912">
        <ele>255.37</ele>
        <time>2024-07-10T13:45:17Z</time>
      </trkpt>
      <trkpt lat="50.18942" lon="4.35903">
        <ele>255.37</ele>
        <time>2024-07-10T13:45:22Z</time>
      </trkpt>
      <trkpt lat="50.18933" lon="4.35874">
        <ele>254.41</ele>
        <time>2024-07-10T13:45:41Z</time>
      </trkpt>
      <trkpt lat="50.18923" lon="4.35853">
        <ele>253.93</ele>
        <time>2024-07-10T13:45:58Z</time>
      </trkpt>
      <trkpt lat="50.18916" lon="4.35835">
        <ele>252.96</ele>
        <time>2024-07-10T13:46:14Z</time>
      </trkpt>
      <trkpt lat="50.18919" lon="4.35832">
        <ele>252.48</ele>
        <time>2024-07-10T13:46:37Z</time>
      </trkpt>
      <trkpt lat="50.18918" lon="4.35835">
        <ele>252.48</ele>
        <time>2024-07-10T13:47:06Z</time>
      </trkpt>
      <trkpt lat="50.18911" lon="4.35816">
        <ele>252.48</ele>
        <time>2024-07-10T13:47:22Z</time>
      </trkpt>
      <trkpt lat="50.18908" lon="4.35785">
        <ele>252.48</ele>
        <time>2024-07-10T13:47:40Z</time>
      </trkpt>
      <trkpt lat="50.18907" lon="4.35766">
        <ele>252.48</ele>
        <time>2024-07-10T13:47:55Z</time>
      </trkpt>
      <trkpt lat="50.18911" lon="4.35749">
        <ele>253.44</ele>
        <time>2024-07-10T13:48:12Z</time>
      </trkpt>
      <trkpt lat="50.1891" lon="4.3575">
        <ele>252</ele>
        <time>2024-07-10T13:48:18Z</time>
      </trkpt>
      <trkpt lat="50.1891" lon="4.35753">
        <ele>252.96</ele>
        <time>2024-07-10T13:48:35Z</time>
      </trkpt>
      <trkpt lat="50.18909" lon="4.35757">
        <ele>252</ele>
        <time>2024-07-10T13:48:57Z</time>
      </trkpt>
      <trkpt lat="50.18908" lon="4.35758">
        <ele>252</ele>
        <time>2024-07-10T13:49:11Z</time>
      </trkpt>
      <trkpt lat="50.18908" lon="4.35755">
        <ele>252</ele>
        <time>2024-07-10T13:49:28Z</time>
      </trkpt>
      <trkpt lat="50.18905" lon="4.35759">
        <ele>251.52</ele>
        <time>2024-07-10T13:49:42Z</time>
      </trkpt>
      <trkpt lat="50.18904" lon="4.35758">
        <ele>251.04</ele>
        <time>2024-07-10T13:49:54Z</time>
      </trkpt>
      <trkpt lat="50.18902" lon="4.3576">
        <ele>253.93</ele>
        <time>2024-07-10T13:50:00Z</time>
      </trkpt>
      <trkpt lat="50.18903" lon="4.35762">
        <ele>251.52</ele>
        <time>2024-07-10T13:50:20Z</time>
      </trkpt>
      <trkpt lat="50.18903" lon="4.35756">
        <ele>251.52</ele>
        <time>2024-07-10T13:50:39Z</time>
      </trkpt>
      <trkpt lat="50.18902" lon="4.35754">
        <ele>251.04</ele>
        <time>2024-07-10T13:50:58Z</time>
      </trkpt>
      <trkpt lat="50.18907" lon="4.35754">
        <ele>252</ele>
        <time>2024-07-10T13:51:15Z</time>
      </trkpt>
      <trkpt lat="50.18911" lon="4.35745">
        <ele>252.48</ele>
        <time>2024-07-10T13:51:34Z</time>
      </trkpt>
      <trkpt lat="50.18911" lon="4.3574">
        <ele>252.48</ele>
        <time>2024-07-10T13:51:49Z</time>
      </trkpt>
      <trkpt lat="50.18911" lon="4.35738">
        <ele>252.48</ele>
        <time>2024-07-10T13:52:05Z</time>
      </trkpt>
      <trkpt lat="50.18911" lon="4.35737">
        <ele>252.96</ele>
        <time>2024-07-10T13:52:07Z</time>
      </trkpt>
      <trkpt lat="50.18913" lon="4.35722">
        <ele>252.96</ele>
        <time>2024-07-10T13:52:16Z</time>
      </trkpt>
      <trkpt lat="50.18914" lon="4.35711">
        <ele>249.12</ele>
        <time>2024-07-10T13:52:23Z</time>
      </trkpt>
      <trkpt lat="50.18913" lon="4.3571">
        <ele>253.44</ele>
        <time>2024-07-10T13:52:24Z</time>
      </trkpt>
      <trkpt lat="50.1891" lon="4.35689">
        <ele>253.93</ele>
        <time>2024-07-10T13:52:38Z</time>
      </trkpt>
      <trkpt lat="50.18908" lon="4.35678">
        <ele>253.93</ele>
        <time>2024-07-10T13:52:52Z</time>
      </trkpt>
      <trkpt lat="50.18908" lon="4.35677">
        <ele>252.48</ele>
        <time>2024-07-10T13:52:54Z</time>
      </trkpt>
      <trkpt lat="50.18908" lon="4.35672">
        <ele>252.48</ele>
        <time>2024-07-10T13:52:58Z</time>
      </trkpt>
      <trkpt lat="50.1891" lon="4.35647">
        <ele>252.48</ele>
        <time>2024-07-10T13:53:14Z</time>
      </trkpt>
      <trkpt lat="50.18912" lon="4.35617">
        <ele>252.96</ele>
        <time>2024-07-10T13:53:33Z</time>
      </trkpt>
      <trkpt lat="50.18915" lon="4.3559">
        <ele>253.93</ele>
        <time>2024-07-10T13:53:50Z</time>
      </trkpt>
      <trkpt lat="50.18921" lon="4.35578">
        <ele>253.93</ele>
        <time>2024-07-10T13:53:59Z</time>
      </trkpt>
      <trkpt lat="50.18934" lon="4.35562">
        <ele>253.93</ele>
        <time>2024-07-10T13:54:17Z</time>
      </trkpt>
      <trkpt lat="50.18946" lon="4.35549">
        <ele>253.93</ele>
        <time>2024-07-10T13:54:32Z</time>
      </trkpt>
      <trkpt lat="50.18964" lon="4.35544">
        <ele>253.93</ele>
        <time>2024-07-10T13:54:49Z</time>
      </trkpt>
      <trkpt lat="50.18974" lon="4.35542">
        <ele>253.93</ele>
        <time>2024-07-10T13:54:59Z</time>
      </trkpt>
      <trkpt lat="50.18992" lon="4.35526">
        <ele>253.93</ele>
        <time>2024-07-10T13:55:18Z</time>
      </trkpt>
      <trkpt lat="50.18998" lon="4.35514">
        <ele>253.93</ele>
        <time>2024-07-10T13:55:29Z</time>
      </trkpt>
      <trkpt lat="50.19001" lon="4.35487">
        <ele>253.93</ele>
        <time>2024-07-10T13:55:46Z</time>
      </trkpt>
      <trkpt lat="50.18999" lon="4.35466">
        <ele>253.93</ele>
        <time>2024-07-10T13:56:01Z</time>
      </trkpt>
      <trkpt lat="50.18998" lon="4.35464">
        <ele>254.89</ele>
        <time>2024-07-10T13:56:02Z</time>
      </trkpt>
      <trkpt lat="50.18995" lon="4.35455">
        <ele>254.41</ele>
        <time>2024-07-10T13:56:09Z</time>
      </trkpt>
      <trkpt lat="50.18983" lon="4.35436">
        <ele>254.89</ele>
        <time>2024-07-10T13:56:26Z</time>
      </trkpt>
      <trkpt lat="50.18969" lon="4.35412">
        <ele>254.89</ele>
        <time>2024-07-10T13:56:44Z</time>
      </trkpt>
      <trkpt lat="50.18955" lon="4.3539">
        <ele>255.37</ele>
        <time>2024-07-10T13:57:01Z</time>
      </trkpt>
      <trkpt lat="50.18943" lon="4.35371">
        <ele>255.37</ele>
        <time>2024-07-10T13:57:17Z</time>
      </trkpt>
      <trkpt lat="50.18932" lon="4.3535">
        <ele>255.37</ele>
        <time>2024-07-10T13:57:33Z</time>
      </trkpt>
      <trkpt lat="50.18921" lon="4.3533">
        <ele>255.37</ele>
        <time>2024-07-10T13:57:50Z</time>
      </trkpt>
      <trkpt lat="50.18917" lon="4.35309">
        <ele>255.37</ele>
        <time>2024-07-10T13:58:06Z</time>
      </trkpt>
      <trkpt lat="50.18915" lon="4.35299">
        <ele>255.37</ele>
        <time>2024-07-10T13:58:19Z</time>
      </trkpt>
      <trkpt lat="50.18911" lon="4.35283">
        <ele>255.37</ele>
        <time>2024-07-10T13:58:33Z</time>
      </trkpt>
      <trkpt lat="50.18907" lon="4.35263">
        <ele>255.37</ele>
        <time>2024-07-10T13:58:48Z</time>
      </trkpt>
      <trkpt lat="50.18906" lon="4.3525">
        <ele>255.85</ele>
        <time>2024-07-10T13:59:01Z</time>
      </trkpt>
      <trkpt lat="50.18905" lon="4.35233">
        <ele>255.85</ele>
        <time>2024-07-10T13:59:13Z</time>
      </trkpt>
      <trkpt lat="50.18903" lon="4.35214">
        <ele>255.85</ele>
        <time>2024-07-10T13:59:28Z</time>
      </trkpt>
      <trkpt lat="50.18902" lon="4.35205">
        <ele>254.41</ele>
        <time>2024-07-10T13:59:35Z</time>
      </trkpt>
      <trkpt lat="50.189" lon="4.35184">
        <ele>255.37</ele>
        <time>2024-07-10T13:59:49Z</time>
      </trkpt>
      <trkpt lat="50.18897" lon="4.35161">
        <ele>255.37</ele>
        <time>2024-07-10T14:00:04Z</time>
      </trkpt>
      <trkpt lat="50.18896" lon="4.35151">
        <ele>254.41</ele>
        <time>2024-07-10T14:00:11Z</time>
      </trkpt>
      <trkpt lat="50.18896" lon="4.3513">
        <ele>254.41</ele>
        <time>2024-07-10T14:00:26Z</time>
      </trkpt>
      <trkpt lat="50.18897" lon="4.35118">
        <ele>253.44</ele>
        <time>2024-07-10T14:00:38Z</time>
      </trkpt>
      <trkpt lat="50.18898" lon="4.3512">
        <ele>253.93</ele>
        <time>2024-07-10T14:00:56Z</time>
      </trkpt>
      <trkpt lat="50.18907" lon="4.35114">
        <ele>254.89</ele>
        <time>2024-07-10T14:01:10Z</time>
      </trkpt>
      <trkpt lat="50.18907" lon="4.35113">
        <ele>255.37</ele>
        <time>2024-07-10T14:01:31Z</time>
      </trkpt>
      <trkpt lat="50.18905" lon="4.35114">
        <ele>255.37</ele>
        <time>2024-07-10T14:01:58Z</time>
      </trkpt>
      <trkpt lat="50.18899" lon="4.35118">
        <ele>254.41</ele>
        <time>2024-07-10T14:02:12Z</time>
      </trkpt>
      <trkpt lat="50.18895" lon="4.35118">
        <ele>252.96</ele>
        <time>2024-07-10T14:02:28Z</time>
      </trkpt>
      <trkpt lat="50.18896" lon="4.35129">
        <ele>252.96</ele>
        <time>2024-07-10T14:02:41Z</time>
      </trkpt>
      <trkpt lat="50.18896" lon="4.35138">
        <ele>252.96</ele>
        <time>2024-07-10T14:02:47Z</time>
      </trkpt>
      <trkpt lat="50.18897" lon="4.35167">
        <ele>254.41</ele>
        <time>2024-07-10T14:03:04Z</time>
      </trkpt>
      <trkpt lat="50.189" lon="4.35193">
        <ele>254.89</ele>
        <time>2024-07-10T14:03:20Z</time>
      </trkpt>
      <trkpt lat="50.18903" lon="4.35221">
        <ele>255.37</ele>
        <time>2024-07-10T14:03:38Z</time>
      </trkpt>
      <trkpt lat="50.18906" lon="4.35251">
        <ele>255.85</ele>
        <time>2024-07-10T14:03:56Z</time>
      </trkpt>
      <trkpt lat="50.1891" lon="4.35276">
        <ele>255.85</ele>
        <time>2024-07-10T14:04:12Z</time>
      </trkpt>
      <trkpt lat="50.18916" lon="4.353">
        <ele>256.33</ele>
        <time>2024-07-10T14:04:28Z</time>
      </trkpt>
      <trkpt lat="50.18921" lon="4.35315">
        <ele>256.33</ele>
        <time>2024-07-10T14:04:42Z</time>
      </trkpt>
      <trkpt lat="50.18929" lon="4.35308">
        <ele>256.81</ele>
        <time>2024-07-10T14:04:55Z</time>
      </trkpt>
      <trkpt lat="50.18939" lon="4.35302">
        <ele>257.77</ele>
        <time>2024-07-10T14:05:10Z</time>
      </trkpt>
      <trkpt lat="50.18946" lon="4.35297">
        <ele>258.73</ele>
        <time>2024-07-10T14:05:21Z</time>
      </trkpt>
      <trkpt lat="50.18958" lon="4.35287">
        <ele>258.73</ele>
        <time>2024-07-10T14:05:36Z</time>
      </trkpt>
      <trkpt lat="50.18964" lon="4.35287">
        <ele>258.73</ele>
        <time>2024-07-10T14:05:43Z</time>
      </trkpt>
      <trkpt lat="50.18968" lon="4.35291">
        <ele>259.69</ele>
        <time>2024-07-10T14:05:57Z</time>
      </trkpt>
      <trkpt lat="50.18972" lon="4.35287">
        <ele>259.69</ele>
        <time>2024-07-10T14:06:09Z</time>
      </trkpt>
      <trkpt lat="50.18986" lon="4.35269">
        <ele>260.65</ele>
        <time>2024-07-10T14:06:27Z</time>
      </trkpt>
      <trkpt lat="50.1899" lon="4.35263">
        <ele>260.65</ele>
        <time>2024-07-10T14:06:32Z</time>
      </trkpt>
      <trkpt lat="50.18996" lon="4.35258">
        <ele>261.14</ele>
        <time>2024-07-10T14:06:38Z</time>
      </trkpt>
      <trkpt lat="50.19015" lon="4.35255">
        <ele>262.1</ele>
        <time>2024-07-10T14:06:55Z</time>
      </trkpt>
      <trkpt lat="50.19029" lon="4.35245">
        <ele>263.54</ele>
        <time>2024-07-10T14:07:12Z</time>
      </trkpt>
      <trkpt lat="50.19047" lon="4.35242">
        <ele>264.02</ele>
        <time>2024-07-10T14:07:31Z</time>
      </trkpt>
      <trkpt lat="50.1905" lon="4.35245">
        <ele>264.02</ele>
        <time>2024-07-10T14:07:35Z</time>
      </trkpt>
      <trkpt lat="50.19057" lon="4.35258">
        <ele>264.98</ele>
        <time>2024-07-10T14:07:50Z</time>
      </trkpt>
      <trkpt lat="50.19078" lon="4.35257">
        <ele>265.46</ele>
        <time>2024-07-10T14:08:09Z</time>
      </trkpt>
      <trkpt lat="50.19085" lon="4.35253">
        <ele>265.94</ele>
        <time>2024-07-10T14:08:17Z</time>
      </trkpt>
      <trkpt lat="50.19093" lon="4.35246">
        <ele>266.42</ele>
        <time>2024-07-10T14:08:28Z</time>
      </trkpt>
      <trkpt lat="50.19107" lon="4.35255">
        <ele>266.9</ele>
        <time>2024-07-10T14:08:43Z</time>
      </trkpt>
      <trkpt lat="50.19109" lon="4.35257">
        <ele>266.9</ele>
        <time>2024-07-10T14:08:46Z</time>
      </trkpt>
      <trkpt lat="50.19113" lon="4.35273">
        <ele>266.9</ele>
        <time>2024-07-10T14:09:01Z</time>
      </trkpt>
      <trkpt lat="50.19118" lon="4.35292">
        <ele>267.38</ele>
        <time>2024-07-10T14:09:16Z</time>
      </trkpt>
      <trkpt lat="50.19125" lon="4.35307">
        <ele>267.38</ele>
        <time>2024-07-10T14:09:29Z</time>
      </trkpt>
      <trkpt lat="50.19127" lon="4.35309">
        <ele>267.38</ele>
        <time>2024-07-10T14:09:42Z</time>
      </trkpt>
      <trkpt lat="50.19135" lon="4.35302">
        <ele>267.38</ele>
        <time>2024-07-10T14:09:57Z</time>
      </trkpt>
      <trkpt lat="50.19147" lon="4.35284">
        <ele>267.38</ele>
        <time>2024-07-10T14:10:13Z</time>
      </trkpt>
      <trkpt lat="50.1916" lon="4.35268">
        <ele>267.86</ele>
        <time>2024-07-10T14:10:30Z</time>
      </trkpt>
      <trkpt lat="50.19169" lon="4.3526">
        <ele>268.83</ele>
        <time>2024-07-10T14:10:41Z</time>
      </trkpt>
      <trkpt lat="50.19174" lon="4.35256">
        <ele>267.86</ele>
        <time>2024-07-10T14:10:47Z</time>
      </trkpt>
      <trkpt lat="50.19183" lon="4.3525">
        <ele>266.9</ele>
        <time>2024-07-10T14:10:57Z</time>
      </trkpt>
      <trkpt lat="50.19184" lon="4.35248">
        <ele>269.31</ele>
        <time>2024-07-10T14:10:59Z</time>
      </trkpt>
      <trkpt lat="50.19187" lon="4.35245">
        <ele>269.31</ele>
        <time>2024-07-10T14:11:03Z</time>
      </trkpt>
      <trkpt lat="50.19189" lon="4.35243">
        <ele>266.9</ele>
        <time>2024-07-10T14:11:05Z</time>
      </trkpt>
      <trkpt lat="50.1919" lon="4.35242">
        <ele>268.83</ele>
        <time>2024-07-10T14:11:07Z</time>
      </trkpt>
      <trkpt lat="50.19191" lon="4.35241">
        <ele>266.9</ele>
        <time>2024-07-10T14:11:09Z</time>
      </trkpt>
      <trkpt lat="50.19191" lon="4.35241">
        <ele>268.83</ele>
        <time>2024-07-10T14:11:11Z</time>
      </trkpt>
      <trkpt lat="50.19192" lon="4.35239">
        <ele>268.35</ele>
        <time>2024-07-10T14:11:18Z</time>
      </trkpt>
      <trkpt lat="50.19193" lon="4.35236">
        <ele>268.35</ele>
        <time>2024-07-10T14:11:35Z</time>
      </trkpt>
      <trkpt lat="50.19196" lon="4.35236">
        <ele>268.35</ele>
        <time>2024-07-10T14:11:54Z</time>
      </trkpt>
      <trkpt lat="50.19205" lon="4.35227">
        <ele>268.83</ele>
        <time>2024-07-10T14:12:09Z</time>
      </trkpt>
      <trkpt lat="50.19221" lon="4.35229">
        <ele>268.83</ele>
        <time>2024-07-10T14:12:25Z</time>
      </trkpt>
      <trkpt lat="50.19234" lon="4.35218">
        <ele>268.83</ele>
        <time>2024-07-10T14:12:42Z</time>
      </trkpt>
      <trkpt lat="50.19249" lon="4.35205">
        <ele>268.83</ele>
        <time>2024-07-10T14:12:58Z</time>
      </trkpt>
      <trkpt lat="50.19263" lon="4.35203">
        <ele>269.31</ele>
        <time>2024-07-10T14:13:15Z</time>
      </trkpt>
      <trkpt lat="50.19267" lon="4.3522">
        <ele>270.27</ele>
        <time>2024-07-10T14:13:31Z</time>
      </trkpt>
      <trkpt lat="50.19273" lon="4.35238">
        <ele>270.27</ele>
        <time>2024-07-10T14:13:48Z</time>
      </trkpt>
      <trkpt lat="50.19281" lon="4.35268">
        <ele>271.23</ele>
        <time>2024-07-10T14:14:09Z</time>
      </trkpt>
      <trkpt lat="50.19283" lon="4.35275">
        <ele>271.23</ele>
        <time>2024-07-10T14:14:14Z</time>
      </trkpt>
      <trkpt lat="50.19289" lon="4.35298">
        <ele>270.75</ele>
        <time>2024-07-10T14:14:29Z</time>
      </trkpt>
      <trkpt lat="50.19292" lon="4.35322">
        <ele>270.27</ele>
        <time>2024-07-10T14:14:46Z</time>
      </trkpt>
      <trkpt lat="50.19292" lon="4.35323">
        <ele>271.23</ele>
        <time>2024-07-10T14:14:48Z</time>
      </trkpt>
      <trkpt lat="50.19291" lon="4.35349">
        <ele>270.75</ele>
        <time>2024-07-10T14:15:11Z</time>
      </trkpt>
      <trkpt lat="50.19291" lon="4.35351">
        <ele>272.19</ele>
        <time>2024-07-10T14:15:13Z</time>
      </trkpt>
      <trkpt lat="50.19297" lon="4.35386">
        <ele>272.19</ele>
        <time>2024-07-10T14:15:38Z</time>
      </trkpt>
      <trkpt lat="50.19298" lon="4.35394">
        <ele>270.75</ele>
        <time>2024-07-10T14:15:42Z</time>
      </trkpt>
      <trkpt lat="50.19298" lon="4.35398">
        <ele>272.67</ele>
        <time>2024-07-10T14:15:44Z</time>
      </trkpt>
      <trkpt lat="50.193" lon="4.35411">
        <ele>271.23</ele>
        <time>2024-07-10T14:15:53Z</time>
      </trkpt>
      <trkpt lat="50.193" lon="4.35449">
        <ele>270.75</ele>
        <time>2024-07-10T14:16:15Z</time>
      </trkpt>
      <trkpt lat="50.19299" lon="4.35454">
        <ele>272.19</ele>
        <time>2024-07-10T14:16:18Z</time>
      </trkpt>
      <trkpt lat="50.19302" lon="4.35488">
        <ele>271.71</ele>
        <time>2024-07-10T14:16:43Z</time>
      </trkpt>
      <trkpt lat="50.19301" lon="4.35494">
        <ele>270.27</ele>
        <time>2024-07-10T14:16:46Z</time>
      </trkpt>
      <trkpt lat="50.19301" lon="4.35496">
        <ele>271.71</ele>
        <time>2024-07-10T14:16:48Z</time>
      </trkpt>
      <trkpt lat="50.19298" lon="4.35526">
        <ele>270.75</ele>
        <time>2024-07-10T14:17:09Z</time>
      </trkpt>
      <trkpt lat="50.193" lon="4.35561">
        <ele>270.75</ele>
        <time>2024-07-10T14:17:27Z</time>
      </trkpt>
      <trkpt lat="50.19295" lon="4.35593">
        <ele>270.27</ele>
        <time>2024-07-10T14:17:49Z</time>
      </trkpt>
      <trkpt lat="50.19288" lon="4.35625">
        <ele>269.79</ele>
        <time>2024-07-10T14:18:09Z</time>
      </trkpt>
      <trkpt lat="50.19284" lon="4.35664">
        <ele>269.79</ele>
        <time>2024-07-10T14:18:35Z</time>
      </trkpt>
      <trkpt lat="50.19271" lon="4.3569">
        <ele>269.79</ele>
        <time>2024-07-10T14:18:58Z</time>
      </trkpt>
      <trkpt lat="50.19261" lon="4.35721">
        <ele>269.31</ele>
        <time>2024-07-10T14:19:21Z</time>
      </trkpt>
      <trkpt lat="50.19257" lon="4.35745">
        <ele>270.75</ele>
        <time>2024-07-10T14:19:45Z</time>
      </trkpt>
      <trkpt lat="50.19258" lon="4.35758">
        <ele>269.31</ele>
        <time>2024-07-10T14:19:59Z</time>
      </trkpt>
      <trkpt lat="50.19264" lon="4.35774">
        <ele>269.31</ele>
        <time>2024-07-10T14:20:18Z</time>
      </trkpt>
      <trkpt lat="50.1928" lon="4.35791">
        <ele>268.35</ele>
        <time>2024-07-10T14:20:40Z</time>
      </trkpt>
      <trkpt lat="50.19299" lon="4.35802">
        <ele>267.38</ele>
        <time>2024-07-10T14:21:03Z</time>
      </trkpt>
      <trkpt lat="50.19314" lon="4.35812">
        <ele>266.42</ele>
        <time>2024-07-10T14:21:24Z</time>
      </trkpt>
      <trkpt lat="50.1933" lon="4.35807">
        <ele>265.46</ele>
        <time>2024-07-10T14:21:48Z</time>
      </trkpt>
      <trkpt lat="50.19346" lon="4.3581">
        <ele>264.5</ele>
        <time>2024-07-10T14:22:11Z</time>
      </trkpt>
      <trkpt lat="50.19358" lon="4.35806">
        <ele>263.54</ele>
        <time>2024-07-10T14:22:31Z</time>
      </trkpt>
      <trkpt lat="50.19376" lon="4.3581">
        <ele>263.06</ele>
        <time>2024-07-10T14:22:55Z</time>
      </trkpt>
      <trkpt lat="50.19395" lon="4.35811">
        <ele>262.1</ele>
        <time>2024-07-10T14:23:19Z</time>
      </trkpt>
      <trkpt lat="50.19419" lon="4.35825">
        <ele>260.65</ele>
        <time>2024-07-10T14:23:42Z</time>
      </trkpt>
      <trkpt lat="50.19426" lon="4.35846">
        <ele>260.17</ele>
        <time>2024-07-10T14:24:02Z</time>
      </trkpt>
      <trkpt lat="50.19427" lon="4.35862">
        <ele>259.21</ele>
        <time>2024-07-10T14:24:20Z</time>
      </trkpt>
      <trkpt lat="50.1943" lon="4.35883">
        <ele>254.89</ele>
        <time>2024-07-10T14:24:38Z</time>
      </trkpt>
      <trkpt lat="50.1943" lon="4.35884">
        <ele>258.73</ele>
        <time>2024-07-10T14:24:39Z</time>
      </trkpt>
      <trkpt lat="50.19429" lon="4.35884">
        <ele>258.73</ele>
        <time>2024-07-10T14:24:40Z</time>
      </trkpt>
      <trkpt lat="50.19429" lon="4.35887">
        <ele>255.37</ele>
        <time>2024-07-10T14:24:51Z</time>
      </trkpt>
      <trkpt lat="50.19432" lon="4.3589">
        <ele>255.37</ele>
        <time>2024-07-10T14:24:59Z</time>
      </trkpt>
      <trkpt lat="50.19434" lon="4.3589">
        <ele>257.77</ele>
        <time>2024-07-10T14:25:01Z</time>
      </trkpt>
      <trkpt lat="50.19435" lon="4.35891">
        <ele>256.33</ele>
        <time>2024-07-10T14:25:03Z</time>
      </trkpt>
      <trkpt lat="50.19436" lon="4.35895">
        <ele>258.25</ele>
        <time>2024-07-10T14:25:10Z</time>
      </trkpt>
      <trkpt lat="50.19436" lon="4.35905">
        <ele>254.89</ele>
        <time>2024-07-10T14:25:15Z</time>
      </trkpt>
      <trkpt lat="50.19436" lon="4.35907">
        <ele>258.25</ele>
        <time>2024-07-10T14:25:16Z</time>
      </trkpt>
      <trkpt lat="50.19435" lon="4.35919">
        <ele>255.37</ele>
        <time>2024-07-10T14:25:21Z</time>
      </trkpt>
      <trkpt lat="50.19434" lon="4.35929">
        <ele>257.29</ele>
        <time>2024-07-10T14:25:25Z</time>
      </trkpt>
      <trkpt lat="50.19438" lon="4.3594">
        <ele>253.93</ele>
        <time>2024-07-10T14:25:37Z</time>
      </trkpt>
      <trkpt lat="50.19438" lon="4.35941">
        <ele>257.29</ele>
        <time>2024-07-10T14:25:38Z</time>
      </trkpt>
      <trkpt lat="50.19439" lon="4.35945">
        <ele>254.41</ele>
        <time>2024-07-10T14:25:41Z</time>
      </trkpt>
      <trkpt lat="50.19439" lon="4.35947">
        <ele>257.77</ele>
        <time>2024-07-10T14:25:42Z</time>
      </trkpt>
      <trkpt lat="50.19439" lon="4.35949">
        <ele>255.85</ele>
        <time>2024-07-10T14:25:43Z</time>
      </trkpt>
      <trkpt lat="50.19438" lon="4.35954">
        <ele>256.81</ele>
        <time>2024-07-10T14:25:47Z</time>
      </trkpt>
      <trkpt lat="50.19434" lon="4.3596">
        <ele>254.89</ele>
        <time>2024-07-10T14:25:53Z</time>
      </trkpt>
      <trkpt lat="50.1943" lon="4.35963">
        <ele>258.25</ele>
        <time>2024-07-10T14:25:59Z</time>
      </trkpt>
      <trkpt lat="50.19429" lon="4.35964">
        <ele>258.25</ele>
        <time>2024-07-10T14:26:00Z</time>
      </trkpt>
      <trkpt lat="50.19427" lon="4.3597">
        <ele>257.29</ele>
        <time>2024-07-10T14:26:06Z</time>
      </trkpt>
      <trkpt lat="50.19426" lon="4.35974">
        <ele>258.73</ele>
        <time>2024-07-10T14:26:09Z</time>
      </trkpt>
      <trkpt lat="50.19426" lon="4.35977">
        <ele>257.77</ele>
        <time>2024-07-10T14:26:11Z</time>
      </trkpt>
      <trkpt lat="50.19425" lon="4.35979">
        <ele>258.73</ele>
        <time>2024-07-10T14:26:13Z</time>
      </trkpt>
      <trkpt lat="50.19424" lon="4.35982">
        <ele>258.25</ele>
        <time>2024-07-10T14:26:19Z</time>
      </trkpt>
      <trkpt lat="50.1942" lon="4.35996">
        <ele>257.29</ele>
        <time>2024-07-10T14:26:29Z</time>
      </trkpt>
      <trkpt lat="50.19418" lon="4.35997">
        <ele>259.21</ele>
        <time>2024-07-10T14:26:31Z</time>
      </trkpt>
      <trkpt lat="50.19428" lon="4.35995">
        <ele>255.37</ele>
        <time>2024-07-10T14:26:43Z</time>
      </trkpt>
      <trkpt lat="50.19429" lon="4.35995">
        <ele>259.69</ele>
        <time>2024-07-10T14:26:44Z</time>
      </trkpt>
      <trkpt lat="50.19429" lon="4.35997">
        <ele>260.17</ele>
        <time>2024-07-10T14:26:46Z</time>
      </trkpt>
      <trkpt lat="50.1943" lon="4.35997">
        <ele>258.73</ele>
        <time>2024-07-10T14:26:48Z</time>
      </trkpt>
      <trkpt lat="50.19429" lon="4.35991">
        <ele>251.52</ele>
        <time>2024-07-10T14:26:56Z</time>
      </trkpt>
      <trkpt lat="50.19429" lon="4.3599">
        <ele>263.06</ele>
        <time>2024-07-10T14:26:57Z</time>
      </trkpt>
      <trkpt lat="50.19428" lon="4.3599">
        <ele>259.69</ele>
        <time>2024-07-10T14:26:58Z</time>
      </trkpt>
      <trkpt lat="50.19427" lon="4.35989">
        <ele>258.25</ele>
        <time>2024-07-10T14:27:03Z</time>
      </trkpt>
      <trkpt lat="50.19424" lon="4.35989">
        <ele>259.21</ele>
        <time>2024-07-10T14:27:08Z</time>
      </trkpt>
      <trkpt lat="50.19423" lon="4.3599">
        <ele>257.77</ele>
        <time>2024-07-10T14:27:11Z</time>
      </trkpt>
      <trkpt lat="50.19423" lon="4.3599">
        <ele>261.14</ele>
        <time>2024-07-10T14:27:13Z</time>
      </trkpt>
      <trkpt lat="50.19423" lon="4.35989">
        <ele>257.77</ele>
        <time>2024-07-10T14:27:14Z</time>
      </trkpt>
      <trkpt lat="50.19424" lon="4.35989">
        <ele>256.81</ele>
        <time>2024-07-10T14:27:18Z</time>
      </trkpt>
      <trkpt lat="50.19424" lon="4.3599">
        <ele>258.25</ele>
        <time>2024-07-10T14:27:20Z</time>
      </trkpt>
      <trkpt lat="50.19407" lon="4.36027">
        <ele>260.17</ele>
        <time>2024-07-10T14:27:41Z</time>
      </trkpt>
      <trkpt lat="50.19406" lon="4.3603">
        <ele>258.25</ele>
        <time>2024-07-10T14:27:50Z</time>
      </trkpt>
      <trkpt lat="50.19405" lon="4.36032">
        <ele>261.62</ele>
        <time>2024-07-10T14:27:53Z</time>
      </trkpt>
      <trkpt lat="50.19404" lon="4.36033">
        <ele>260.17</ele>
        <time>2024-07-10T14:27:54Z</time>
      </trkpt>
      <trkpt lat="50.19394" lon="4.36054">
        <ele>260.65</ele>
        <time>2024-07-10T14:28:16Z</time>
      </trkpt>
      <trkpt lat="50.19381" lon="4.3608">
        <ele>261.14</ele>
        <time>2024-07-10T14:28:40Z</time>
      </trkpt>
      <trkpt lat="50.19375" lon="4.36096">
        <ele>260.17</ele>
        <time>2024-07-10T14:28:52Z</time>
      </trkpt>
      <trkpt lat="50.19371" lon="4.36108">
        <ele>261.14</ele>
        <time>2024-07-10T14:29:04Z</time>
      </trkpt>
      <trkpt lat="50.1937" lon="4.36116">
        <ele>261.14</ele>
        <time>2024-07-10T14:29:11Z</time>
      </trkpt>
      <trkpt lat="50.19368" lon="4.36126">
        <ele>262.1</ele>
        <time>2024-07-10T14:29:16Z</time>
      </trkpt>
      <trkpt lat="50.19367" lon="4.3613">
        <ele>260.65</ele>
        <time>2024-07-10T14:29:18Z</time>
      </trkpt>
      <trkpt lat="50.19361" lon="4.36143">
        <ele>262.1</ele>
        <time>2024-07-10T14:29:29Z</time>
      </trkpt>
      <trkpt lat="50.19359" lon="4.36147">
        <ele>260.65</ele>
        <time>2024-07-10T14:29:32Z</time>
      </trkpt>
      <trkpt lat="50.19355" lon="4.36156">
        <ele>261.62</ele>
        <time>2024-07-10T14:29:41Z</time>
      </trkpt>
      <trkpt lat="50.19342" lon="4.36186">
        <ele>261.14</ele>
        <time>2024-07-10T14:30:03Z</time>
      </trkpt>
      <trkpt lat="50.19337" lon="4.36201">
        <ele>260.17</ele>
        <time>2024-07-10T14:30:15Z</time>
      </trkpt>
      <trkpt lat="50.19335" lon="4.36203">
        <ele>262.1</ele>
        <time>2024-07-10T14:30:17Z</time>
      </trkpt>
      <trkpt lat="50.1933" lon="4.36212">
        <ele>262.1</ele>
        <time>2024-07-10T14:30:26Z</time>
      </trkpt>
      <trkpt lat="50.19328" lon="4.36216">
        <ele>261.62</ele>
        <time>2024-07-10T14:30:32Z</time>
      </trkpt>
      <trkpt lat="50.19322" lon="4.36225">
        <ele>263.06</ele>
        <time>2024-07-10T14:30:42Z</time>
      </trkpt>
      <trkpt lat="50.19317" lon="4.36231">
        <ele>263.06</ele>
        <time>2024-07-10T14:30:47Z</time>
      </trkpt>
      <trkpt lat="50.19317" lon="4.36234">
        <ele>261.14</ele>
        <time>2024-07-10T14:30:49Z</time>
      </trkpt>
      <trkpt lat="50.19311" lon="4.36261">
        <ele>263.54</ele>
        <time>2024-07-10T14:31:10Z</time>
      </trkpt>
      <trkpt lat="50.19307" lon="4.36267">
        <ele>262.1</ele>
        <time>2024-07-10T14:31:15Z</time>
      </trkpt>
      <trkpt lat="50.19306" lon="4.36274">
        <ele>264.02</ele>
        <time>2024-07-10T14:31:19Z</time>
      </trkpt>
      <trkpt lat="50.19305" lon="4.36277">
        <ele>262.58</ele>
        <time>2024-07-10T14:31:21Z</time>
      </trkpt>
      <trkpt lat="50.19292" lon="4.36306">
        <ele>264.98</ele>
        <time>2024-07-10T14:31:44Z</time>
      </trkpt>
      <trkpt lat="50.1929" lon="4.36309">
        <ele>263.06</ele>
        <time>2024-07-10T14:31:47Z</time>
      </trkpt>
      <trkpt lat="50.19289" lon="4.36312">
        <ele>264.5</ele>
        <time>2024-07-10T14:31:49Z</time>
      </trkpt>
      <trkpt lat="50.19281" lon="4.36338">
        <ele>265.46</ele>
        <time>2024-07-10T14:32:10Z</time>
      </trkpt>
      <trkpt lat="50.1928" lon="4.36341">
        <ele>264.02</ele>
        <time>2024-07-10T14:32:18Z</time>
      </trkpt>
      <trkpt lat="50.1928" lon="4.36343">
        <ele>265.46</ele>
        <time>2024-07-10T14:32:20Z</time>
      </trkpt>
      <trkpt lat="50.19282" lon="4.36351">
        <ele>260.17</ele>
        <time>2024-07-10T14:32:34Z</time>
      </trkpt>
      <trkpt lat="50.19282" lon="4.36352">
        <ele>255.85</ele>
        <time>2024-07-10T14:32:35Z</time>
      </trkpt>
      <trkpt lat="50.19282" lon="4.36352">
        <ele>260.17</ele>
        <time>2024-07-10T14:32:36Z</time>
      </trkpt>
      <trkpt lat="50.19282" lon="4.36352">
        <ele>263.54</ele>
        <time>2024-07-10T14:32:38Z</time>
      </trkpt>
      <trkpt lat="50.19286" lon="4.36347">
        <ele>263.06</ele>
        <time>2024-07-10T14:32:48Z</time>
      </trkpt>
      <trkpt lat="50.19287" lon="4.36347">
        <ele>282.28</ele>
        <time>2024-07-10T14:32:49Z</time>
      </trkpt>
      <trkpt lat="50.19287" lon="4.36348">
        <ele>270.75</ele>
        <time>2024-07-10T14:32:50Z</time>
      </trkpt>
      <trkpt lat="50.19288" lon="4.36348">
        <ele>267.38</ele>
        <time>2024-07-10T14:32:51Z</time>
      </trkpt>
      <trkpt lat="50.19288" lon="4.3635">
        <ele>264.5</ele>
        <time>2024-07-10T14:32:55Z</time>
      </trkpt>
      <trkpt lat="50.19277" lon="4.36358">
        <ele>264.98</ele>
        <time>2024-07-10T14:33:16Z</time>
      </trkpt>
      <trkpt lat="50.19269" lon="4.36384">
        <ele>266.42</ele>
        <time>2024-07-10T14:33:36Z</time>
      </trkpt>
      <trkpt lat="50.19267" lon="4.36391">
        <ele>265.46</ele>
        <time>2024-07-10T14:33:42Z</time>
      </trkpt>
      <trkpt lat="50.19265" lon="4.36402">
        <ele>266.9</ele>
        <time>2024-07-10T14:33:52Z</time>
      </trkpt>
      <trkpt lat="50.19264" lon="4.36405">
        <ele>265.46</ele>
        <time>2024-07-10T14:33:54Z</time>
      </trkpt>
      <trkpt lat="50.19263" lon="4.3642">
        <ele>264.98</ele>
        <time>2024-07-10T14:34:07Z</time>
      </trkpt>
      <trkpt lat="50.1926" lon="4.36437">
        <ele>266.9</ele>
        <time>2024-07-10T14:34:21Z</time>
      </trkpt>
      <trkpt lat="50.19258" lon="4.36453">
        <ele>265.46</ele>
        <time>2024-07-10T14:34:30Z</time>
      </trkpt>
      <trkpt lat="50.19258" lon="4.36456">
        <ele>266.9</ele>
        <time>2024-07-10T14:34:32Z</time>
      </trkpt>
      <trkpt lat="50.19252" lon="4.36483">
        <ele>266.9</ele>
        <time>2024-07-10T14:34:51Z</time>
      </trkpt>
      <trkpt lat="50.19251" lon="4.36489">
        <ele>266.9</ele>
        <time>2024-07-10T14:34:56Z</time>
      </trkpt>
      <trkpt lat="50.19251" lon="4.36491">
        <ele>266.9</ele>
        <time>2024-07-10T14:34:57Z</time>
      </trkpt>
      <trkpt lat="50.19245" lon="4.36517">
        <ele>266.42</ele>
        <time>2024-07-10T14:35:15Z</time>
      </trkpt>
      <trkpt lat="50.19242" lon="4.3653">
        <ele>266.42</ele>
        <time>2024-07-10T14:35:23Z</time>
      </trkpt>
      <trkpt lat="50.19242" lon="4.36534">
        <ele>265.46</ele>
        <time>2024-07-10T14:35:25Z</time>
      </trkpt>
      <trkpt lat="50.19238" lon="4.36552">
        <ele>265.46</ele>
        <time>2024-07-10T14:35:37Z</time>
      </trkpt>
      <trkpt lat="50.19237" lon="4.36557">
        <ele>263.06</ele>
        <time>2024-07-10T14:35:40Z</time>
      </trkpt>
      <trkpt lat="50.19237" lon="4.3656">
        <ele>264.98</ele>
        <time>2024-07-10T14:35:42Z</time>
      </trkpt>
      <trkpt lat="50.19234" lon="4.36577">
        <ele>265.94</ele>
        <time>2024-07-10T14:35:59Z</time>
      </trkpt>
      <trkpt lat="50.19228" lon="4.36597">
        <ele>264.98</ele>
        <time>2024-07-10T14:36:17Z</time>
      </trkpt>
      <trkpt lat="50.19223" lon="4.36625">
        <ele>264.5</ele>
        <time>2024-07-10T14:36:34Z</time>
      </trkpt>
      <trkpt lat="50.19218" lon="4.36648">
        <ele>264.02</ele>
        <time>2024-07-10T14:36:50Z</time>
      </trkpt>
      <trkpt lat="50.19216" lon="4.3665">
        <ele>264.02</ele>
        <time>2024-07-10T14:37:05Z</time>
      </trkpt>
      <trkpt lat="50.19211" lon="4.36668">
        <ele>264.02</ele>
        <time>2024-07-10T14:37:18Z</time>
      </trkpt>
      <trkpt lat="50.19205" lon="4.36696">
        <ele>264.02</ele>
        <time>2024-07-10T14:37:34Z</time>
      </trkpt>
      <trkpt lat="50.19202" lon="4.36722">
        <ele>264.02</ele>
        <time>2024-07-10T14:37:48Z</time>
      </trkpt>
      <trkpt lat="50.19198" lon="4.3674">
        <ele>264.02</ele>
        <time>2024-07-10T14:38:05Z</time>
      </trkpt>
      <trkpt lat="50.19194" lon="4.36758">
        <ele>264.02</ele>
        <time>2024-07-10T14:38:20Z</time>
      </trkpt>
      <trkpt lat="50.19193" lon="4.36773">
        <ele>264.02</ele>
        <time>2024-07-10T14:38:34Z</time>
      </trkpt>
      <trkpt lat="50.19188" lon="4.36793">
        <ele>263.54</ele>
        <time>2024-07-10T14:38:48Z</time>
      </trkpt>
      <trkpt lat="50.19187" lon="4.36796">
        <ele>264.98</ele>
        <time>2024-07-10T14:38:50Z</time>
      </trkpt>
      <trkpt lat="50.19182" lon="4.36818">
        <ele>264.98</ele>
        <time>2024-07-10T14:39:06Z</time>
      </trkpt>
      <trkpt lat="50.19178" lon="4.36843">
        <ele>264.98</ele>
        <time>2024-07-10T14:39:23Z</time>
      </trkpt>
      <trkpt lat="50.19173" lon="4.36868">
        <ele>264.98</ele>
        <time>2024-07-10T14:39:40Z</time>
      </trkpt>
      <trkpt lat="50.19168" lon="4.36891">
        <ele>263.54</ele>
        <time>2024-07-10T14:39:56Z</time>
      </trkpt>
      <trkpt lat="50.19165" lon="4.3691">
        <ele>263.54</ele>
        <time>2024-07-10T14:40:09Z</time>
      </trkpt>
      <trkpt lat="50.19164" lon="4.36914">
        <ele>263.54</ele>
        <time>2024-07-10T14:40:12Z</time>
      </trkpt>
      <trkpt lat="50.19159" lon="4.3694">
        <ele>263.06</ele>
        <time>2024-07-10T14:40:30Z</time>
      </trkpt>
      <trkpt lat="50.19154" lon="4.36962">
        <ele>263.06</ele>
        <time>2024-07-10T14:40:45Z</time>
      </trkpt>
      <trkpt lat="50.1915" lon="4.36985">
        <ele>263.06</ele>
        <time>2024-07-10T14:41:00Z</time>
      </trkpt>
      <trkpt lat="50.19144" lon="4.37007">
        <ele>263.06</ele>
        <time>2024-07-10T14:41:15Z</time>
      </trkpt>
      <trkpt lat="50.1914" lon="4.37028">
        <ele>262.58</ele>
        <time>2024-07-10T14:41:30Z</time>
      </trkpt>
      <trkpt lat="50.19136" lon="4.3705">
        <ele>262.58</ele>
        <time>2024-07-10T14:41:45Z</time>
      </trkpt>
      <trkpt lat="50.19135" lon="4.37052">
        <ele>262.58</ele>
        <time>2024-07-10T14:41:53Z</time>
      </trkpt>
      <trkpt lat="50.19129" lon="4.37076">
        <ele>262.58</ele>
        <time>2024-07-10T14:42:09Z</time>
      </trkpt>
      <trkpt lat="50.19125" lon="4.371">
        <ele>262.58</ele>
        <time>2024-07-10T14:42:24Z</time>
      </trkpt>
      <trkpt lat="50.19122" lon="4.37109">
        <ele>262.58</ele>
        <time>2024-07-10T14:42:30Z</time>
      </trkpt>
      <trkpt lat="50.19121" lon="4.37111">
        <ele>262.58</ele>
        <time>2024-07-10T14:42:32Z</time>
      </trkpt>
      <trkpt lat="50.19115" lon="4.37136">
        <ele>262.58</ele>
        <time>2024-07-10T14:42:49Z</time>
      </trkpt>
      <trkpt lat="50.1911" lon="4.37157">
        <ele>262.58</ele>
        <time>2024-07-10T14:43:04Z</time>
      </trkpt>
      <trkpt lat="50.19105" lon="4.37177">
        <ele>262.1</ele>
        <time>2024-07-10T14:43:18Z</time>
      </trkpt>
      <trkpt lat="50.19101" lon="4.37197">
        <ele>262.1</ele>
        <time>2024-07-10T14:43:32Z</time>
      </trkpt>
      <trkpt lat="50.19098" lon="4.37218">
        <ele>262.1</ele>
        <time>2024-07-10T14:43:45Z</time>
      </trkpt>
      <trkpt lat="50.19094" lon="4.37238">
        <ele>261.14</ele>
        <time>2024-07-10T14:44:00Z</time>
      </trkpt>
      <trkpt lat="50.1909" lon="4.37258">
        <ele>261.14</ele>
        <time>2024-07-10T14:44:17Z</time>
      </trkpt>
      <trkpt lat="50.19088" lon="4.3727">
        <ele>261.14</ele>
        <time>2024-07-10T14:44:30Z</time>
      </trkpt>
      <trkpt lat="50.19087" lon="4.37282">
        <ele>260.65</ele>
        <time>2024-07-10T14:44:52Z</time>
      </trkpt>
      <trkpt lat="50.19083" lon="4.37307">
        <ele>260.65</ele>
        <time>2024-07-10T14:45:09Z</time>
      </trkpt>
      <trkpt lat="50.19077" lon="4.37324">
        <ele>260.65</ele>
        <time>2024-07-10T14:45:25Z</time>
      </trkpt>
      <trkpt lat="50.19075" lon="4.3733">
        <ele>260.65</ele>
        <time>2024-07-10T14:45:47Z</time>
      </trkpt>
      <trkpt lat="50.19072" lon="4.37349">
        <ele>260.65</ele>
        <time>2024-07-10T14:46:01Z</time>
      </trkpt>
      <trkpt lat="50.19068" lon="4.37372">
        <ele>260.65</ele>
        <time>2024-07-10T14:46:15Z</time>
      </trkpt>
      <trkpt lat="50.19067" lon="4.37378">
        <ele>260.65</ele>
        <time>2024-07-10T14:46:19Z</time>
      </trkpt>
      <trkpt lat="50.19069" lon="4.37402">
        <ele>260.65</ele>
        <time>2024-07-10T14:46:35Z</time>
      </trkpt>
      <trkpt lat="50.19073" lon="4.37425">
        <ele>260.65</ele>
        <time>2024-07-10T14:46:50Z</time>
      </trkpt>
      <trkpt lat="50.19073" lon="4.37429">
        <ele>260.65</ele>
        <time>2024-07-10T14:46:52Z</time>
      </trkpt>
      <trkpt lat="50.19078" lon="4.37447">
        <ele>260.17</ele>
        <time>2024-07-10T14:47:06Z</time>
      </trkpt>
      <trkpt lat="50.19083" lon="4.37465">
        <ele>260.17</ele>
        <time>2024-07-10T14:47:20Z</time>
      </trkpt>
      <trkpt lat="50.19087" lon="4.37482">
        <ele>259.69</ele>
        <time>2024-07-10T14:47:32Z</time>
      </trkpt>
      <trkpt lat="50.19089" lon="4.37492">
        <ele>261.14</ele>
        <time>2024-07-10T14:47:40Z</time>
      </trkpt>
      <trkpt lat="50.1909" lon="4.37493">
        <ele>259.69</ele>
        <time>2024-07-10T14:47:48Z</time>
      </trkpt>
      <trkpt lat="50.19091" lon="4.37494">
        <ele>261.14</ele>
        <time>2024-07-10T14:47:51Z</time>
      </trkpt>
      <trkpt lat="50.19091" lon="4.37497">
        <ele>259.69</ele>
        <time>2024-07-10T14:47:54Z</time>
      </trkpt>
      <trkpt lat="50.19093" lon="4.37509">
        <ele>259.69</ele>
        <time>2024-07-10T14:48:04Z</time>
      </trkpt>
      <trkpt lat="50.19097" lon="4.37529">
        <ele>259.69</ele>
        <time>2024-07-10T14:48:19Z</time>
      </trkpt>
      <trkpt lat="50.19099" lon="4.37549">
        <ele>259.69</ele>
        <time>2024-07-10T14:48:34Z</time>
      </trkpt>
      <trkpt lat="50.19103" lon="4.37567">
        <ele>259.21</ele>
        <time>2024-07-10T14:48:48Z</time>
      </trkpt>
      <trkpt lat="50.19106" lon="4.37585">
        <ele>259.69</ele>
        <time>2024-07-10T14:49:02Z</time>
      </trkpt>
      <trkpt lat="50.19108" lon="4.37599">
        <ele>259.21</ele>
        <time>2024-07-10T14:49:15Z</time>
      </trkpt>
      <trkpt lat="50.19109" lon="4.3761">
        <ele>258.73</ele>
        <time>2024-07-10T14:49:28Z</time>
      </trkpt>
      <trkpt lat="50.1911" lon="4.37621">
        <ele>258.25</ele>
        <time>2024-07-10T14:49:37Z</time>
      </trkpt>
      <trkpt lat="50.19109" lon="4.37624">
        <ele>258.25</ele>
        <time>2024-07-10T14:49:40Z</time>
      </trkpt>
      <trkpt lat="50.19102" lon="4.37642">
        <ele>257.77</ele>
        <time>2024-07-10T14:49:54Z</time>
      </trkpt>
      <trkpt lat="50.19093" lon="4.37649">
        <ele>258.73</ele>
        <time>2024-07-10T14:50:09Z</time>
      </trkpt>
      <trkpt lat="50.19084" lon="4.37656">
        <ele>257.77</ele>
        <time>2024-07-10T14:50:24Z</time>
      </trkpt>
      <trkpt lat="50.19075" lon="4.37665">
        <ele>257.29</ele>
        <time>2024-07-10T14:50:38Z</time>
      </trkpt>
      <trkpt lat="50.19074" lon="4.37669">
        <ele>257.29</ele>
        <time>2024-07-10T14:50:53Z</time>
      </trkpt>
      <trkpt lat="50.19066" lon="4.37675">
        <ele>256.81</ele>
        <time>2024-07-10T14:51:06Z</time>
      </trkpt>
      <trkpt lat="50.19059" lon="4.37683">
        <ele>255.37</ele>
        <time>2024-07-10T14:51:22Z</time>
      </trkpt>
      <trkpt lat="50.19059" lon="4.37688">
        <ele>255.37</ele>
        <time>2024-07-10T14:51:35Z</time>
      </trkpt>
      <trkpt lat="50.19059" lon="4.37689">
        <ele>254.89</ele>
        <time>2024-07-10T14:51:37Z</time>
      </trkpt>
      <trkpt lat="50.1907" lon="4.37709">
        <ele>254.89</ele>
        <time>2024-07-10T14:51:53Z</time>
      </trkpt>
      <trkpt lat="50.19073" lon="4.37711">
        <ele>256.33</ele>
        <time>2024-07-10T14:51:58Z</time>
      </trkpt>
      <trkpt lat="50.19082" lon="4.3772">
        <ele>256.33</ele>
        <time>2024-07-10T14:52:12Z</time>
      </trkpt>
      <trkpt lat="50.19092" lon="4.37733">
        <ele>256.81</ele>
        <time>2024-07-10T14:52:27Z</time>
      </trkpt>
      <trkpt lat="50.19102" lon="4.37743">
        <ele>257.29</ele>
        <time>2024-07-10T14:52:40Z</time>
      </trkpt>
      <trkpt lat="50.1911" lon="4.37753">
        <ele>257.77</ele>
        <time>2024-07-10T14:52:54Z</time>
      </trkpt>
      <trkpt lat="50.19118" lon="4.37765">
        <ele>257.77</ele>
        <time>2024-07-10T14:53:07Z</time>
      </trkpt>
      <trkpt lat="50.19118" lon="4.37769">
        <ele>257.77</ele>
        <time>2024-07-10T14:53:10Z</time>
      </trkpt>
      <trkpt lat="50.19124" lon="4.3779">
        <ele>257.77</ele>
        <time>2024-07-10T14:53:26Z</time>
      </trkpt>
      <trkpt lat="50.19129" lon="4.37812">
        <ele>257.77</ele>
        <time>2024-07-10T14:53:41Z</time>
      </trkpt>
      <trkpt lat="50.19134" lon="4.37831">
        <ele>257.77</ele>
        <time>2024-07-10T14:53:55Z</time>
      </trkpt>
      <trkpt lat="50.19137" lon="4.37846">
        <ele>257.77</ele>
        <time>2024-07-10T14:54:06Z</time>
      </trkpt>
      <trkpt lat="50.19143" lon="4.37866">
        <ele>257.77</ele>
        <time>2024-07-10T14:54:21Z</time>
      </trkpt>
      <trkpt lat="50.19146" lon="4.37884">
        <ele>257.77</ele>
        <time>2024-07-10T14:54:35Z</time>
      </trkpt>
      <trkpt lat="50.19153" lon="4.37903">
        <ele>257.77</ele>
        <time>2024-07-10T14:54:50Z</time>
      </trkpt>
      <trkpt lat="50.19155" lon="4.37905">
        <ele>257.77</ele>
        <time>2024-07-10T14:54:52Z</time>
      </trkpt>
      <trkpt lat="50.19161" lon="4.37909">
        <ele>256.81</ele>
        <time>2024-07-10T14:54:59Z</time>
      </trkpt>
      <trkpt lat="50.19172" lon="4.37912">
        <ele>256.81</ele>
        <time>2024-07-10T14:55:13Z</time>
      </trkpt>
      <trkpt lat="50.19184" lon="4.37917">
        <ele>258.25</ele>
        <time>2024-07-10T14:55:27Z</time>
      </trkpt>
      <trkpt lat="50.19187" lon="4.37925">
        <ele>258.25</ele>
        <time>2024-07-10T14:55:35Z</time>
      </trkpt>
      <trkpt lat="50.19187" lon="4.37939">
        <ele>258.73</ele>
        <time>2024-07-10T14:55:50Z</time>
      </trkpt>
      <trkpt lat="50.19188" lon="4.37948">
        <ele>258.73</ele>
        <time>2024-07-10T14:56:12Z</time>
      </trkpt>
      <trkpt lat="50.19189" lon="4.37963">
        <ele>258.73</ele>
        <time>2024-07-10T14:56:26Z</time>
      </trkpt>
      <trkpt lat="50.19188" lon="4.37982">
        <ele>257.77</ele>
        <time>2024-07-10T14:56:40Z</time>
      </trkpt>
      <trkpt lat="50.19187" lon="4.38001">
        <ele>257.77</ele>
        <time>2024-07-10T14:56:55Z</time>
      </trkpt>
      <trkpt lat="50.19186" lon="4.38025">
        <ele>257.29</ele>
        <time>2024-07-10T14:57:12Z</time>
      </trkpt>
      <trkpt lat="50.19185" lon="4.38039">
        <ele>256.81</ele>
        <time>2024-07-10T14:57:22Z</time>
      </trkpt>
      <trkpt lat="50.19184" lon="4.38046">
        <ele>253.44</ele>
        <time>2024-07-10T14:57:27Z</time>
      </trkpt>
      <trkpt lat="50.19185" lon="4.38048">
        <ele>256.81</ele>
        <time>2024-07-10T14:57:28Z</time>
      </trkpt>
      <trkpt lat="50.19185" lon="4.38049">
        <ele>257.29</ele>
        <time>2024-07-10T14:57:29Z</time>
      </trkpt>
      <trkpt lat="50.19184" lon="4.38058">
        <ele>255.85</ele>
        <time>2024-07-10T14:57:35Z</time>
      </trkpt>
      <trkpt lat="50.19184" lon="4.3808">
        <ele>255.85</ele>
        <time>2024-07-10T14:57:52Z</time>
      </trkpt>
      <trkpt lat="50.19188" lon="4.38098">
        <ele>255.37</ele>
        <time>2024-07-10T14:58:08Z</time>
      </trkpt>
      <trkpt lat="50.19193" lon="4.38107">
        <ele>255.37</ele>
        <time>2024-07-10T14:58:16Z</time>
      </trkpt>
      <trkpt lat="50.19204" lon="4.38121">
        <ele>254.89</ele>
        <time>2024-07-10T14:58:30Z</time>
      </trkpt>
    </trkseg>
  </trk>
</gpx>